Time;durP1;ratioP1;P1;durP2;ratioP2;P2;SDS_P1;SDS_P2;PMS_P1;PMS_P2;Temp;Humidity;BMP_temperature;BMP_pressure;BME280_temperature;BME280_humidity;BME280_pressure;Samples;Min_cycle;Max_cycle;Signal;HPM_P1;HPM_P2
2021/11/07 00:03:51;;;;;;;;;;;3.00;99.90;;;;;;8360819;28;19913;-62
2021/11/07 00:08:25;;;;;;;;;;;3.10;99.90;;;;;;8360736;28;19919;-63
2021/11/07 00:12:30;;;;;;;;;;;3.10;99.90;;;;;;8359184;28;20372;-63
2021/11/07 00:16:33;;;;;;;;;;;3.30;99.90;;;;;;8360481;28;20292;-62
2021/11/07 00:20:36;;;;;;;;;;;3.20;99.90;;;;;;8342487;28;19948;-62
2021/11/07 00:29:09;;;;;;;;;;;3.10;99.90;;;;;;8336544;28;20415;-62
2021/11/07 00:37:31;;;;;;;;;;;3.10;99.90;;;;;;8360409;28;19909;-62
2021/11/07 00:49:41;;;;;;;;;;;3.10;99.90;;;;;;8360403;28;19940;-62
2021/11/07 00:53:57;;;;;;;;;;;3.20;99.90;;;;;;8359974;28;19912;-63
2021/11/07 00:58:07;;;;;;;;;;;3.10;99.90;;;;;;8359877;28;19944;-62
2021/11/07 01:02:11;;;;;;;;;;;3.00;99.90;;;;;;8363092;28;19912;-62
2021/11/07 01:06:12;;;;;;;;;;;3.00;99.90;;;;;;8366244;28;19917;-62
2021/11/07 01:10:13;;;;;;;;;;;3.10;99.90;;;;;;8347895;28;19911;-62
2021/11/07 01:14:14;;;;;;;;;;;3.10;99.90;;;;;;8365890;28;19950;-62
2021/11/07 01:18:14;;;;;;;;;;;3.00;99.90;;;;;;8335457;28;19959;-62
2021/11/07 01:22:18;;;;;;;;;;;3.00;99.90;;;;;;8332517;28;19991;-62
2021/11/07 01:30:24;;;;;;;;;;;3.00;99.90;;;;;;8332664;28;19909;-62
2021/11/07 01:34:39;;;;;;;;;;;3.00;99.90;;;;;;8332377;28;20379;-62
2021/11/07 01:38:49;;;;;;;;;;;3.00;99.90;;;;;;8332097;28;19979;-63
2021/11/07 01:42:54;;;;;;;;;;;3.10;99.90;;;;;;8332219;28;20003;-62
2021/11/07 01:46:57;;;;;;;;;;;3.10;99.90;;;;;;8331129;28;19909;-62
2021/11/07 01:50:58;;;;;;;;;;;3.00;99.90;;;;;;8364731;28;19995;-63
2021/11/07 01:55:03;;;;;;;;;;;3.10;99.90;;;;;;8379508;28;19944;-62
2021/11/07 01:59:04;;;;;;;;;;;3.10;99.90;;;;;;8364001;28;20292;-62
2021/11/07 02:03:04;;;;;;;;;;;3.10;99.90;;;;;;8359753;28;19919;-62
2021/11/07 02:07:05;;;;;;;;;;;3.10;99.90;;;;;;8363160;28;20265;-62
2021/11/07 02:11:05;;;;;;;;;;;3.20;99.90;;;;;;8363075;28;19904;-63
2021/11/07 02:15:14;;;;;;;;;;;3.20;99.90;;;;;;8363248;28;20365;-62
2021/11/07 02:19:16;;;;;;;;;;;3.20;99.90;;;;;;8339402;28;19913;-62
2021/11/07 02:23:19;;;;;;;;;;;3.10;99.90;;;;;;8328944;28;19912;-62
2021/11/07 02:27:20;;;;;;;;;;;3.20;99.90;;;;;;8337817;28;19912;-62
2021/11/07 02:31:20;;;;;;;;;;;3.20;99.90;;;;;;8362720;28;19908;-62
2021/11/07 02:35:21;;;;;;;;;;;3.40;99.90;;;;;;8363317;28;19912;-62
2021/11/07 02:39:22;;;;;;;;;;;3.40;99.90;;;;;;8362998;28;19970;-62
2021/11/07 02:43:23;;;;;;;;;;;3.50;99.90;;;;;;8363115;28;19909;-62
2021/11/07 02:47:23;;;;;;;;;;;3.50;99.90;;;;;;8345074;28;20295;-62
2021/11/07 02:51:29;;;;;;;;;;;3.60;99.90;;;;;;8361055;28;19912;-62
2021/11/07 02:55:29;;;;;;;;;;;3.60;99.90;;;;;;8362696;28;19928;-63
2021/11/07 02:59:32;;;;;;;;;;;3.60;99.90;;;;;;8362393;28;19996;-62
2021/11/07 03:03:33;;;;;;;;;;;3.70;99.90;;;;;;8344556;28;19987;-62
2021/11/07 03:07:33;;;;;;;;;;;3.80;99.90;;;;;;8362392;28;19908;-62
2021/11/07 03:11:42;;;;;;;;;;;3.80;99.90;;;;;;8361997;28;20006;-63
2021/11/07 03:15:42;;;;;;;;;;;3.70;99.90;;;;;;8362031;28;19912;-63
2021/11/07 03:19:43;;;;;;;;;;;3.70;99.90;;;;;;8361605;28;19912;-63
2021/11/07 03:23:49;;;;;;;;;;;3.80;99.90;;;;;;8341796;28;19909;-62
2021/11/07 03:27:50;;;;;;;;;;;3.80;99.90;;;;;;8361456;28;20003;-62
2021/11/07 03:32:01;;;;;;;;;;;3.90;99.90;;;;;;8361468;28;19913;-60
2021/11/07 03:36:05;;;;;;;;;;;3.70;99.90;;;;;;8361621;28;19908;-62
2021/11/07 03:40:08;;;;;;;;;;;3.70;99.90;;;;;;8361164;28;19940;-62
2021/11/07 03:44:09;;;;;;;;;;;3.70;99.90;;;;;;8361250;28;19967;-62
2021/11/07 03:48:10;;;;;;;;;;;3.70;99.90;;;;;;8343351;28;19915;-62
2021/11/07 03:52:11;;;;;;;;;;;3.60;99.90;;;;;;8360841;28;19904;-62
2021/11/07 03:56:12;;;;;;;;;;;3.60;99.90;;;;;;8351119;28;19914;-62
2021/11/07 04:00:14;;;;;;;;;;;3.70;99.90;;;;;;8374974;28;19915;-62
2021/11/07 04:04:15;;;;;;;;;;;3.60;99.90;;;;;;8360586;28;19939;-62
2021/11/07 04:08:15;;;;;;;;;;;3.60;99.90;;;;;;8360651;28;19912;-62
2021/11/07 04:12:16;;;;;;;;;;;3.60;99.90;;;;;;8360801;28;19904;-62
2021/11/07 04:16:16;;;;;;;;;;;3.60;99.90;;;;;;8360586;28;19912;-62
2021/11/07 04:20:17;;;;;;;;;;;3.50;99.90;;;;;;8360487;28;19905;-63
2021/11/07 04:24:17;;;;;;;;;;;3.50;99.90;;;;;;8360474;28;19987;-62
2021/11/07 04:28:18;;;;;;;;;;;3.70;99.90;;;;;;8358492;28;20261;-62
2021/11/07 04:32:19;;;;;;;;;;;3.80;99.90;;;;;;8360225;28;20410;-62
2021/11/07 04:36:20;;;;;;;;;;;3.80;99.90;;;;;;8362746;28;19905;-62
2021/11/07 04:40:21;;;;;;;;;;;3.90;99.90;;;;;;8366793;28;19905;-62
2021/11/07 04:44:21;;;;;;;;;;;3.80;99.90;;;;;;8348988;28;20324;-62
2021/11/07 04:48:22;;;;;;;;;;;3.80;99.90;;;;;;8366612;28;19932;-62
2021/11/07 04:52:22;;;;;;;;;;;3.80;99.90;;;;;;8366475;28;19908;-62
2021/11/07 04:56:23;;;;;;;;;;;3.80;99.90;;;;;;8366352;28;19909;-62
2021/11/07 05:00:23;;;;;;;;;;;3.80;99.90;;;;;;8364642;28;19904;-62
2021/11/07 05:04:24;;;;;;;;;;;3.80;99.90;;;;;;8366247;28;19913;-62
2021/11/07 05:08:25;;;;;;;;;;;3.80;99.90;;;;;;8366001;28;19912;-62
2021/11/07 05:12:28;;;;;;;;;;;3.90;99.90;;;;;;8365965;28;19905;-62
2021/11/07 05:16:28;;;;;;;;;;;3.90;99.90;;;;;;8364663;28;19909;-62
2021/11/07 05:20:29;;;;;;;;;;;3.80;99.90;;;;;;8347169;28;19956;-63
2021/11/07 05:24:29;;;;;;;;;;;3.90;99.90;;;;;;8363585;28;19909;-63
2021/11/07 05:28:32;;;;;;;;;;;3.90;99.90;;;;;;8365327;28;19905;-63
2021/11/07 05:32:32;;;;;;;;;;;3.70;99.90;;;;;;8363823;28;20017;-63
2021/11/07 05:36:34;;;;;;;;;;;3.70;99.90;;;;;;8365279;28;19908;-63
2021/11/07 05:40:35;;;;;;;;;;;3.70;99.90;;;;;;8347147;28;19909;-63
2021/11/07 05:44:35;;;;;;;;;;;3.70;99.90;;;;;;8346906;28;19909;-63
2021/11/07 05:48:39;;;;;;;;;;;3.70;99.90;;;;;;8364160;28;19958;-63
2021/11/07 05:52:40;;;;;;;;;;;3.70;99.90;;;;;;8364795;28;19908;-63
2021/11/07 05:56:41;;;;;;;;;;;3.70;99.90;;;;;;8364645;28;19943;-63
2021/11/07 06:00:42;;;;;;;;;;;3.50;99.90;;;;;;8346679;28;19905;-62
2021/11/07 06:04:43;;;;;;;;;;;3.40;99.90;;;;;;8353089;28;20008;-63
2021/11/07 06:08:43;;;;;;;;;;;3.40;99.90;;;;;;8331275;28;19905;-63
2021/11/07 06:12:44;;;;;;;;;;;3.40;99.90;;;;;;8331124;28;20284;-63
2021/11/07 06:16:45;;;;;;;;;;;3.50;99.90;;;;;;8330986;28;20388;-63
2021/11/07 06:20:45;;;;;;;;;;;3.50;99.90;;;;;;8330818;28;19932;-63
2021/11/07 06:24:46;;;;;;;;;;;3.50;99.90;;;;;;8330801;28;19905;-62
2021/11/07 06:28:46;;;;;;;;;;;3.40;99.90;;;;;;8332774;28;19926;-63
2021/11/07 06:32:47;;;;;;;;;;;3.50;99.90;;;;;;8345609;28;19956;-63
2021/11/07 06:36:48;;;;;;;;;;;3.50;99.90;;;;;;8334628;28;19992;-63
2021/11/07 06:40:48;;;;;;;;;;;3.50;99.90;;;;;;8330090;28;19967;-63
2021/11/07 06:44:49;;;;;;;;;;;3.50;99.90;;;;;;8330019;28;19909;-63
2021/11/07 06:48:49;;;;;;;;;;;3.50;99.90;;;;;;8330043;28;19905;-63
2021/11/07 06:52:50;;;;;;;;;;;3.50;99.90;;;;;;8329954;28;19912;-62
2021/11/07 06:56:51;;;;;;;;;;;3.50;99.90;;;;;;8334098;28;19913;-62
2021/11/07 07:00:51;;;;;;;;;;;3.50;99.90;;;;;;8361446;28;19905;-63
2021/11/07 07:04:51;;;;;;;;;;;3.60;99.90;;;;;;8362377;28;19920;-63
2021/11/07 07:09:15;;;;;;;;;;;3.70;99.90;;;;;;8360496;28;19909;-63
2021/11/07 07:13:22;;;;;;;;;;;3.80;99.90;;;;;;8361587;28;19909;-63
2021/11/07 07:17:35;;;;;;;;;;;3.70;99.90;;;;;;8362474;28;19908;-63
2021/11/07 07:21:51;;;;;;;;;;;3.70;99.90;;;;;;8361860;28;20380;-63
2021/11/07 07:30:15;;;;;;;;;;;4.00;99.90;;;;;;8361912;28;19904;-64
2021/11/07 07:34:23;;;;;;;;;;;4.00;99.90;;;;;;8343967;28;19924;-62
2021/11/07 07:38:24;;;;;;;;;;;3.80;99.90;;;;;;8343740;28;19905;-63
2021/11/07 07:42:25;;;;;;;;;;;3.90;99.90;;;;;;8338862;28;19912;-63
2021/11/07 07:46:26;;;;;;;;;;;4.00;99.90;;;;;;8328258;28;19908;-63
2021/11/07 07:50:27;;;;;;;;;;;4.10;99.90;;;;;;8328233;28;19912;-63
2021/11/07 07:54:27;;;;;;;;;;;4.20;99.90;;;;;;8327980;28;19905;-63
2021/11/07 07:58:28;;;;;;;;;;;4.30;99.90;;;;;;8345279;28;19911;-63
2021/11/07 08:02:29;;;;;;;;;;;4.30;99.90;;;;;;8360809;28;19919;-63
2021/11/07 08:06:30;;;;;;;;;;;4.50;99.90;;;;;;8360166;28;19919;-63
2021/11/07 08:10:30;;;;;;;;;;;4.50;99.90;;;;;;8342191;28;20361;-63
2021/11/07 08:14:31;;;;;;;;;;;4.60;99.90;;;;;;8356248;28;20495;-63
2021/11/07 08:18:32;;;;;;;;;;;4.60;99.90;;;;;;8360165;28;19913;-63
2021/11/07 08:22:33;;;;;;;;;;;4.50;99.90;;;;;;8342508;28;19909;-63
2021/11/07 08:26:35;;;;;;;;;;;4.70;99.90;;;;;;8358924;28;19975;-63
2021/11/07 08:30:40;;;;;;;;;;;4.60;99.90;;;;;;8359644;28;19915;-63
2021/11/07 08:34:40;;;;;;;;;;;4.70;99.90;;;;;;8357692;28;20351;-63
2021/11/07 08:38:48;;;;;;;;;;;4.70;99.90;;;;;;8352633;28;19916;-63
2021/11/07 08:43:00;;;;;;;;;;;4.70;99.90;;;;;;8354753;28;19909;-63
2021/11/07 09:08:37;;;;;;;;;;;5.80;99.90;;;;;;8357957;28;19912;-63
2021/11/07 09:12:38;;;;;;;;;;;5.90;99.90;;;;;;8340749;28;19913;-63
2021/11/07 09:16:38;;;;;;;;;;;6.00;99.90;;;;;;8356809;28;19993;-63
2021/11/07 09:21:00;;;;;;;;;;;6.20;99.90;;;;;;8359771;28;19911;-63
2021/11/07 09:25:06;;;;;;;;;;;6.30;99.90;;;;;;8365525;28;19913;-63
2021/11/07 09:29:10;;;;;;;;;;;6.00;99.90;;;;;;8347460;28;19991;-63
2021/11/07 09:33:23;;;;;;;;;;;6.00;99.90;;;;;;8347570;28;19905;-63
2021/11/07 09:38:08;;;;;;;;;;;5.80;99.90;;;;;;8365470;28;19905;-63
2021/11/07 09:46:14;;;;;;;;;;;5.70;99.90;;;;;;8364474;28;20372;-63
2021/11/07 09:50:13;;;;;;;;;;;5.30;99.90;;;;;;8361236;28;20288;-63
2021/11/07 09:54:16;;;;;;;;;;;5.10;99.90;;;;;;8363079;28;19909;-63
2021/11/07 09:58:17;;;;;;;;;;;5.10;99.90;;;;;;8345515;28;19916;-64
2021/11/07 10:02:17;;;;;;;;;;;5.20;99.90;;;;;;8345725;28;19917;-63
2021/11/07 10:06:25;;;;;;;;;;;5.40;99.90;;;;;;8362427;28;19999;-63
2021/11/07 10:10:31;;;;;;;;;;;5.60;99.90;;;;;;8360941;28;19962;-63
2021/11/07 10:14:43;;;;;;;;;;;6.10;99.90;;;;;;8344995;28;20265;-63
2021/11/07 10:18:55;;;;;;;;;;;6.70;99.90;;;;;;8344877;28;19958;-63
2021/11/07 10:22:59;;;;;;;;;;;7.90;99.90;;;;;;8362345;28;19908;-63
2021/11/07 10:27:02;;;;;;;;;;;8.40;99.90;;;;;;8362705;28;19913;-63
2021/11/07 10:31:05;;;;;;;;;;;9.20;99.90;;;;;;8360398;28;19958;-64
2021/11/07 10:39:41;;;;;;;;;;;13.80;99.90;;;;;;8362057;28;19963;-64
2021/11/07 10:44:19;;;;;;;;;;;13.50;99.90;;;;;;8344275;28;20274;-64
2021/11/07 10:48:25;;;;;;;;;;;12.00;99.90;;;;;;8359943;28;19911;-63
2021/11/07 10:52:26;;;;;;;;;;;11.70;99.90;;;;;;8362202;28;19944;-63
2021/11/07 10:56:26;;;;;;;;;;;12.20;99.90;;;;;;8362271;28;19959;-63
2021/11/07 11:00:39;;;;;;;;;;;14.00;99.90;;;;;;8362464;28;19911;-64
2021/11/07 11:04:57;;;;;;;;;;;15.00;99.90;;;;;;8362400;28;19912;-64
2021/11/07 11:09:07;;;;;;;;;;;14.50;99.90;;;;;;8344438;28;20017;-64
2021/11/07 11:13:17;;;;;;;;;;;14.80;99.90;;;;;;8362365;28;19999;-63
2021/11/07 11:17:29;;;;;;;;;;;13.70;99.90;;;;;;8362349;28;19909;-63
2021/11/07 11:25:46;;;;;;;;;;;10.70;99.90;;;;;;8351610;28;19905;-63
2021/11/07 11:30:05;;;;;;;;;;;9.30;99.90;;;;;;8338981;28;19950;-63
2021/11/07 11:34:11;;;;;;;;;;;10.90;99.90;;;;;;8361725;28;20422;-63
2021/11/07 11:38:29;;;;;;;;;;;12.00;99.90;;;;;;8359325;28;19992;-63
2021/11/07 11:42:49;;;;;;;;;;;14.00;99.90;;;;;;8342725;28;20072;-64
2021/11/07 11:47:03;;;;;;;;;;;16.00;99.90;;;;;;8341659;28;19951;-64
2021/11/07 11:55:32;;;;;;;;;;;17.60;95.00;;;;;;8359271;28;20281;-63
2021/11/07 12:00:21;;;;;;;;;;;15.80;96.10;;;;;;8355443;28;20433;-63
2021/11/07 12:04:15;;;;;;;;;;;13.20;99.90;;;;;;8352453;28;20406;-63
2021/11/07 12:08:44;;;;;;;;;;;11.50;99.90;;;;;;8357354;28;19909;-63
2021/11/07 12:12:56;;;;;;;;;;;12.30;99.90;;;;;;8341205;28;19905;-63
2021/11/07 12:16:59;;;;;;;;;;;12.40;99.90;;;;;;8357795;28;20292;-63
2021/11/07 12:21:02;;;;;;;;;;;13.30;99.90;;;;;;8355945;28;19909;-63
2021/11/07 12:25:05;;;;;;;;;;;12.70;99.90;;;;;;8356807;28;20003;-63
2021/11/07 12:29:06;;;;;;;;;;;13.30;99.90;;;;;;8350840;28;19917;-64
2021/11/07 12:33:12;;;;;;;;;;;14.20;99.90;;;;;;8353660;28;20650;-63
2021/11/07 12:41:31;;;;;;;;;;;13.50;99.90;;;;;;8351861;28;19966;-64
2021/11/07 12:45:39;;;;;;;;;;;12.40;99.90;;;;;;8352215;28;19904;-64
2021/11/07 12:49:40;;;;;;;;;;;12.20;99.90;;;;;;8344547;28;19916;-63
2021/11/07 12:53:55;;;;;;;;;;;11.50;99.90;;;;;;8352549;28;19948;-64
2021/11/07 12:57:55;;;;;;;;;;;11.50;99.90;;;;;;8358638;28;20003;-63
2021/11/07 13:02:01;;;;;;;;;;;11.90;99.90;;;;;;8334710;28;19913;-63
2021/11/07 13:06:02;;;;;;;;;;;12.30;99.90;;;;;;8345846;28;19923;-63
2021/11/07 13:10:08;;;;;;;;;;;14.00;99.90;;;;;;8342563;28;20008;-63
2021/11/07 13:14:19;;;;;;;;;;;15.50;99.90;;;;;;8346019;28;20289;-63
2021/11/07 13:23:04;;;;;;;;;;;13.80;99.90;;;;;;8337691;28;19923;-64
2021/11/07 13:35:20;;;;;;;;;;;13.60;99.90;;;;;;8337878;28;19921;-65
2021/11/07 13:39:32;;;;;;;;;;;14.30;99.90;;;;;;8320347;28;19991;-64
2021/11/07 13:43:32;;;;;;;;;;;13.30;99.90;;;;;;8320890;28;20000;-64
2021/11/07 13:47:34;;;;;;;;;;;11.60;99.90;;;;;;8324980;28;19917;-64
2021/11/07 13:51:49;;;;;;;;;;;10.90;99.90;;;;;;8347003;28;19939;-64
2021/11/07 13:55:54;;;;;;;;;;;10.70;99.90;;;;;;8355948;28;20476;-64
2021/11/07 13:59:54;;;;;;;;;;;10.50;99.90;;;;;;8342196;28;20334;-64
2021/11/07 14:03:56;;;;;;;;;;;10.10;99.90;;;;;;8359622;28;19919;-64
2021/11/07 14:07:58;;;;;;;;;;;10.20;99.90;;;;;;8349458;28;19904;-63
2021/11/07 14:11:58;;;;;;;;;;;9.80;99.90;;;;;;8324309;28;19978;-64
2021/11/07 14:16:01;;;;;;;;;;;9.60;99.90;;;;;;8339265;28;19966;-64
2021/11/07 14:20:03;;;;;;;;;;;9.60;99.90;;;;;;8353395;28;20006;-64
2021/11/07 14:28:08;;;;;;;;;;;9.70;99.90;;;;;;8358318;28;19912;-65
2021/11/07 14:32:27;;;;;;;;;;;9.60;99.90;;;;;;8350118;28;19975;-64
2021/11/07 14:44:38;;;;;;;;;;;9.80;99.90;;;;;;8358966;28;19908;-63
2021/11/07 14:52:50;;;;;;;;;;;9.40;99.90;;;;;;8358612;28;19905;-64
2021/11/07 15:01:13;;;;;;;;;;;9.20;99.90;;;;;;8358188;28;20698;-64
2021/11/07 15:05:34;;;;;;;;;;;9.40;99.90;;;;;;8339633;28;20335;-64
2021/11/07 15:14:08;;;;;;;;;;;9.10;99.90;;;;;;8348089;28;19912;-65
2021/11/07 15:23:03;;;;;;;;;;;8.90;99.90;;;;;;8276206;28;21420;-65
2021/11/07 15:27:06;;;;;;;;;;;8.80;99.90;;;;;;8357872;28;19909;-64
2021/11/07 15:31:16;;;;;;;;;;;8.70;99.90;;;;;;8334934;28;19913;-64
2021/11/07 15:35:20;;;;;;;;;;;8.70;99.90;;;;;;8332310;28;19920;-64
2021/11/07 15:39:22;;;;;;;;;;;8.70;99.90;;;;;;8329103;28;20396;-65
2021/11/07 15:43:26;;;;;;;;;;;8.60;99.90;;;;;;8341242;28;20312;-64
2021/11/07 15:47:30;;;;;;;;;;;8.60;99.90;;;;;;8324469;28;19905;-64
2021/11/07 15:51:50;;;;;;;;;;;8.60;99.90;;;;;;8325288;28;19913;-64
2021/11/07 15:55:57;;;;;;;;;;;8.50;99.90;;;;;;8319211;28;20410;-65
2021/11/07 16:04:06;;;;;;;;;;;8.40;99.90;;;;;;8327610;28;19917;-65
2021/11/07 16:08:15;;;;;;;;;;;8.40;99.90;;;;;;8348981;28;20112;-64
2021/11/07 16:20:27;;;;;;;;;;;8.30;99.90;;;;;;8330296;28;19913;-64
2021/11/07 16:24:28;;;;;;;;;;;8.10;99.90;;;;;;8327651;28;20090;-65
2021/11/07 16:28:29;;;;;;;;;;;8.20;99.90;;;;;;8337445;28;19913;-65
2021/11/07 16:32:44;;;;;;;;;;;8.30;99.90;;;;;;8325716;28;19928;-63
2021/11/07 16:36:45;;;;;;;;;;;8.20;99.90;;;;;;8326179;28;19929;-63
2021/11/07 16:41:00;;;;;;;;;;;8.10;99.90;;;;;;8334075;28;19908;-63
2021/11/07 16:45:02;;;;;;;;;;;8.00;99.90;;;;;;8353094;28;19913;-63
2021/11/07 16:49:03;;;;;;;;;;;8.00;99.90;;;;;;8357681;28;19913;-63
2021/11/07 16:53:06;;;;;;;;;;;8.10;99.90;;;;;;8337000;28;19920;-63
2021/11/07 16:57:06;;;;;;;;;;;8.00;99.90;;;;;;8345871;28;19913;-63
2021/11/07 17:01:07;;;;;;;;;;;8.00;99.90;;;;;;8354531;28;19935;-63
2021/11/07 17:05:23;;;;;;;;;;;7.90;99.90;;;;;;8349545;28;20015;-62
2021/11/07 17:13:24;;;;;;;;;;;7.90;99.90;;;;;;8356468;28;19916;-63
2021/11/07 17:17:31;;;;;;;;;;;7.90;99.90;;;;;;8358449;28;20638;-63
2021/11/07 17:21:40;;;;;;;;;;;7.80;99.90;;;;;;8357003;28;20012;-63
2021/11/07 17:25:51;;;;;;;;;;;7.90;99.90;;;;;;8355434;28;19912;-63
2021/11/07 17:29:55;;;;;;;;;;;7.90;99.90;;;;;;8357444;28;20364;-63
2021/11/07 17:34:02;;;;;;;;;;;7.80;99.90;;;;;;8361240;28;19908;-63
2021/11/07 17:38:15;;;;;;;;;;;7.90;99.90;;;;;;8359740;28;19922;-63
2021/11/07 17:54:54;;;;;;;;;;;7.70;99.90;;;;;;8326233;28;19909;-63
2021/11/07 17:58:55;;;;;;;;;;;7.70;99.90;;;;;;8334684;28;19923;-63
2021/11/07 18:03:01;;;;;;;;;;;7.50;99.90;;;;;;8330190;28;20571;-63
2021/11/07 18:11:21;;;;;;;;;;;7.50;99.90;;;;;;8347215;28;19915;-63
2021/11/07 18:15:23;;;;;;;;;;;7.70;99.90;;;;;;8345755;28;19917;-63
2021/11/07 18:19:23;;;;;;;;;;;7.70;99.90;;;;;;8342679;28;19916;-63
2021/11/07 18:23:32;;;;;;;;;;;7.70;99.90;;;;;;8328635;28;19920;-63
2021/11/07 18:27:36;;;;;;;;;;;7.70;99.90;;;;;;8334276;28;19912;-64
2021/11/07 18:31:36;;;;;;;;;;;7.70;99.90;;;;;;8341646;28;19924;-63
2021/11/07 18:35:40;;;;;;;;;;;7.80;99.90;;;;;;8344744;28;20106;-63
2021/11/07 18:39:41;;;;;;;;;;;7.70;99.90;;;;;;8336840;28;19913;-63
2021/11/07 18:43:43;;;;;;;;;;;7.70;99.90;;;;;;8322888;28;20448;-63
2021/11/07 18:47:44;;;;;;;;;;;7.60;99.90;;;;;;8343330;28;19924;-63
2021/11/07 18:51:44;;;;;;;;;;;7.60;99.90;;;;;;8342849;28;19909;-64
2021/11/07 18:55:45;;;;;;;;;;;7.50;99.90;;;;;;8333910;28;20430;-64
2021/11/07 18:59:46;;;;;;;;;;;7.60;99.90;;;;;;8324977;28;19915;-63
2021/11/07 19:03:49;;;;;;;;;;;7.60;99.90;;;;;;8358517;28;20027;-64
2021/11/07 19:07:49;;;;;;;;;;;7.50;99.90;;;;;;8339648;28;19995;-63
2021/11/07 19:11:50;;;;;;;;;;;7.50;99.90;;;;;;8353973;28;19916;-63
2021/11/07 19:15:51;;;;;;;;;;;7.60;99.90;;;;;;8336964;28;20061;-64
2021/11/07 19:19:52;;;;;;;;;;;7.50;99.90;;;;;;8355908;28;19905;-63
2021/11/07 19:23:53;;;;;;;;;;;7.40;99.90;;;;;;8349822;28;19916;-63
2021/11/07 19:27:54;;;;;;;;;;;7.30;99.90;;;;;;8352758;28;20467;-64
2021/11/07 19:31:54;;;;;;;;;;;7.10;99.90;;;;;;8354722;28;20380;-64
2021/11/07 19:35:55;;;;;;;;;;;6.90;99.90;;;;;;8353841;28;19920;-64
2021/11/07 19:39:56;;;;;;;;;;;6.90;99.90;;;;;;8354975;28;19920;-64
2021/11/07 19:43:57;;;;;;;;;;;6.90;99.90;;;;;;8354640;28;19997;-64
2021/11/07 19:48:03;;;;;;;;;;;6.70;99.90;;;;;;8345842;28;20339;-63
2021/11/07 19:52:04;;;;;;;;;;;6.60;99.90;;;;;;8316025;28;19960;-63
2021/11/07 19:56:04;;;;;;;;;;;6.50;99.90;;;;;;8323199;28;19920;-63
2021/11/07 20:04:40;;;;;;;;;;;6.50;99.90;;;;;;8323372;28;19921;-63
2021/11/07 20:13:05;;;;;;;;;;;6.50;99.90;;;;;;8328201;28;20477;-63
2021/11/07 20:17:07;;;;;;;;;;;6.50;99.90;;;;;;8354461;28;19917;-63
2021/11/07 20:21:08;;;;;;;;;;;6.50;99.90;;;;;;8355701;28;19990;-63
2021/11/07 20:25:11;;;;;;;;;;;6.60;99.90;;;;;;8355202;28;19978;-64
2021/11/07 20:29:13;;;;;;;;;;;6.60;99.90;;;;;;8355187;28;19954;-64
2021/11/07 20:33:16;;;;;;;;;;;6.60;99.90;;;;;;8353454;28;19962;-64
2021/11/07 20:37:19;;;;;;;;;;;6.60;99.90;;;;;;8347779;28;19970;-64
2021/11/07 20:41:21;;;;;;;;;;;6.60;99.90;;;;;;8348334;28;19931;-64
2021/11/07 20:50:05;;;;;;;;;;;6.70;99.90;;;;;;8352798;28;19916;-64
2021/11/07 20:54:07;;;;;;;;;;;6.70;99.90;;;;;;8347681;28;20697;-64
2021/11/07 20:58:25;;;;;;;;;;;6.60;99.90;;;;;;8353604;28;19921;-64
2021/11/07 21:02:30;;;;;;;;;;;6.60;99.90;;;;;;8350384;28;19939;-64
2021/11/07 21:06:43;;;;;;;;;;;6.50;99.90;;;;;;8349438;28;19923;-64
2021/11/07 21:11:06;;;;;;;;;;;6.50;99.90;;;;;;8353634;28;20007;-64
2021/11/07 21:15:17;;;;;;;;;;;6.40;99.90;;;;;;8353949;28;19908;-64
2021/11/07 21:23:48;;;;;;;;;;;6.60;99.90;;;;;;8365368;28;19940;-64
2021/11/07 21:27:49;;;;;;;;;;;6.50;99.90;;;;;;8347699;28;19963;-64
2021/11/07 21:31:50;;;;;;;;;;;6.60;99.90;;;;;;8347491;28;20354;-64
2021/11/07 21:36:06;;;;;;;;;;;6.60;99.90;;;;;;8361001;28;19909;-64
2021/11/07 21:40:26;;;;;;;;;;;6.70;99.90;;;;;;8347674;28;19949;-64
2021/11/07 21:44:28;;;;;;;;;;;6.60;99.90;;;;;;8332239;28;19905;-64
2021/11/07 21:48:29;;;;;;;;;;;6.60;99.90;;;;;;8331820;28;19967;-64
2021/11/07 21:52:31;;;;;;;;;;;6.50;99.90;;;;;;8332194;28;19909;-64
2021/11/07 21:56:32;;;;;;;;;;;6.40;99.90;;;;;;8333480;28;19962;-64
2021/11/07 22:00:33;;;;;;;;;;;6.40;99.90;;;;;;8364463;28;19904;-64
2021/11/07 22:04:33;;;;;;;;;;;6.40;99.90;;;;;;8364270;28;20188;-64
2021/11/07 22:08:34;;;;;;;;;;;6.40;99.90;;;;;;8344621;28;19915;-64
2021/11/07 22:12:35;;;;;;;;;;;6.30;99.90;;;;;;8346288;28;19912;-63
2021/11/07 22:21:00;;;;;;;;;;;6.40;99.90;;;;;;8364107;28;20439;-64
2021/11/07 22:25:04;;;;;;;;;;;6.30;99.90;;;;;;8363975;28;19911;-64
2021/11/07 22:29:21;;;;;;;;;;;6.40;99.90;;;;;;8363361;28;19944;-64
2021/11/07 22:33:22;;;;;;;;;;;6.40;99.90;;;;;;8363755;28;19950;-64
2021/11/07 22:37:23;;;;;;;;;;;6.30;99.90;;;;;;8363564;28;20262;-64
2021/11/07 22:41:24;;;;;;;;;;;6.30;99.90;;;;;;8347595;28;19905;-64
2021/11/07 22:45:25;;;;;;;;;;;6.30;99.90;;;;;;8312678;28;19909;-64
2021/11/07 22:49:27;;;;;;;;;;;6.30;99.90;;;;;;8330106;28;19905;-64
2021/11/07 22:53:51;;;;;;;;;;;6.40;99.90;;;;;;8330054;28;19912;-64
2021/11/07 22:58:15;;;;;;;;;;;6.40;99.90;;;;;;8342448;28;19916;-64
2021/11/07 23:06:33;;;;;;;;;;;6.10;99.90;;;;;;8363234;28;19950;-64
2021/11/07 23:10:34;;;;;;;;;;;6.10;99.90;;;;;;8362379;28;19909;-64
2021/11/07 23:14:43;;;;;;;;;;;6.00;99.90;;;;;;8360678;28;19947;-64
2021/11/07 23:18:43;;;;;;;;;;;5.90;99.90;;;;;;8362185;28;20042;-64
2021/11/07 23:22:46;;;;;;;;;;;5.90;99.90;;;;;;8362082;28;20257;-64
2021/11/07 23:26:47;;;;;;;;;;;5.90;99.90;;;;;;8361742;28;20069;-64
2021/11/07 23:30:50;;;;;;;;;;;5.80;99.90;;;;;;8361855;28;19911;-64
2021/11/07 23:34:51;;;;;;;;;;;5.60;99.90;;;;;;8361834;28;19910;-64
2021/11/07 23:38:51;;;;;;;;;;;5.40;99.90;;;;;;8343581;28;19909;-64
2021/11/07 23:42:52;;;;;;;;;;;5.20;99.90;;;;;;8361004;28;20571;-64
2021/11/07 23:46:52;;;;;;;;;;;5.20;99.90;;;;;;8341942;28;20361;-63
2021/11/07 23:54:53;;;;;;;;;;;5.10;99.90;;;;;;8361074;28;19962;-63
2021/11/07 23:58:54;;;;;;;;;;;5.10;99.90;;;;;;8360777;28;19920;-64
